»·PEaware :: DAL576 KSLC-KBUR

DAL576 :: KSLC-KBUR

FLIGHT INFORMATION

Flight Status: Arrived
Operator:
Delta Air Lines
More flights by this operator :: More flights under this callsign
Pilot: Anonymous 8274 (8274)
Aircraft: BOEING 737-200
(B732)
More flights by this aircraft type
Origin: KSLC Salt Lake City Intl
United States
Destination: KBUR Bob Hope-Burbank
United States
More flights between these airports :: More routes between these airports
Route: +BCE J11 CORKR J146 LAS J9 DAG LYNXX8
File this flight plan on PilotEdge
Remarks: SCENIC Detour Intentional
Altitude:
(Current/Filed)
30,000ft
Speed:
(Current/Filed)
450kts
Departed: 20-Jan-18 04:12 PM
Arrived: 20-Jan-18 06:24 PM
Distance/Time
Traveled:
498nm/2:11
Distance/Time
To Go:
Arrived

Flight Plot

Page will automatically refresh every two minutes.

Flight plan parsing failed; only flown route is shown


Map Options




Map Legend


Flown Route
Filed Route
Departure Airport
Arrival Airport
Navaid (VOR, NDB)
Fix

Horizontal Profiles

Position Reports

Time Latitude Longitude Heading Altitude Ground
Speed
20-Jan-18 15:44 40.788104 -111.984129 251 4236ft 0kts
20-Jan-18 15:45 40.788104 -111.984129 251 4236ft 0kts
20-Jan-18 15:46 40.788104 -111.984129 251 4236ft 0kts
20-Jan-18 15:47 40.788104 -111.984129 251 4236ft 0kts
20-Jan-18 15:48 40.788104 -111.984129 251 4236ft 0kts
20-Jan-18 15:49 40.788104 -111.984129 251 4236ft 0kts
20-Jan-18 15:50 40.788104 -111.984129 251 4236ft 0kts
20-Jan-18 15:51 40.788104 -111.984129 251 4236ft 0kts
20-Jan-18 15:52 40.788104 -111.984129 251 4236ft 0kts
20-Jan-18 15:53 40.788104 -111.984129 251 4236ft 0kts
20-Jan-18 15:54 40.788104 -111.984129 251 4236ft 0kts
20-Jan-18 15:55 40.788104 -111.984129 251 4236ft 0kts
20-Jan-18 15:56 40.788104 -111.984129 251 4236ft 0kts
20-Jan-18 15:57 40.788104 -111.984129 251 4236ft 0kts
20-Jan-18 15:58 40.788104 -111.984129 251 4236ft 0kts
20-Jan-18 15:59 40.788104 -111.984129 251 4236ft 0kts
20-Jan-18 16:00 40.788115 -111.983843 245 4236ft 2kts
20-Jan-18 16:01 40.788188 -111.983098 309 4236ft 2kts
20-Jan-18 16:02 40.787873 -111.982966 7 4236ft 0kts
20-Jan-18 16:03 40.787874 -111.982966 7 4236ft 0kts
20-Jan-18 16:04 40.787874 -111.982966 7 4236ft 0kts
20-Jan-18 16:05 40.787874 -111.982966 7 4236ft 0kts
20-Jan-18 16:06 40.787906 -111.982960 7 4236ft 2kts
20-Jan-18 16:07 40.789949 -111.981492 84 4236ft 14kts
20-Jan-18 16:08 40.789689 -111.978582 84 4236ft 0kts
20-Jan-18 16:09 40.789689 -111.978582 84 4236ft 0kts
20-Jan-18 16:10 40.789689 -111.978582 84 4236ft 0kts
20-Jan-18 16:11 40.789720 -111.978150 84 4236ft 8kts
20-Jan-18 16:12 40.785439 -111.976563 174 4236ft 31kts
20-Jan-18 16:13 40.776938 -111.975065 174 4236ft 29kts
20-Jan-18 16:14 40.774646 -111.974722 147 4236ft 0kts
20-Jan-18 16:15 40.774646 -111.974722 147 4236ft 0kts
20-Jan-18 16:16 40.774683 -111.973670 58 4236ft 8kts
20-Jan-18 16:17 40.775179 -111.973190 354 4236ft 0kts
20-Jan-18 16:18 40.788534 -111.974704 354 4245ft 140kts
20-Jan-18 16:19 40.812795 -112.008249 274 5638ft 168kts
20-Jan-18 16:20 40.813872 -112.081027 274 6703ft 249kts
20-Jan-18 16:21 40.816393 -112.178889 274 9520ft 275kts
20-Jan-18 16:22 40.809788 -112.282088 238 11228ft 329kts
20-Jan-18 16:23 40.724934 -112.316495 181 13975ft 348kts
20-Jan-18 16:24 40.628087 -112.312504 181 16302ft 354kts
20-Jan-18 16:25 40.530048 -112.308226 181 18384ft 359kts
20-Jan-18 16:26 40.429768 -112.303075 181 20204ft 364kts
20-Jan-18 16:27 40.335897 -112.335754 207 21826ft 357kts
20-Jan-18 16:28 40.247155 -112.393210 213 23270ft 359kts
20-Jan-18 16:29 40.158190 -112.451090 186 24474ft 372kts
20-Jan-18 16:30 40.068426 -112.434621 175 25415ft 381kts
20-Jan-18 16:31 40.047280 -112.429955 175 25620ft 382kts
20-Jan-18 16:32 40.028641 -112.425823 175 25797ft 383kts
20-Jan-18 16:33 39.983040 -112.415601 175 26253ft 383kts
20-Jan-18 16:34 39.878953 -112.391598 175 27116ft 387kts
20-Jan-18 16:35 39.774778 -112.367027 175 27931ft 390kts
20-Jan-18 16:36 39.669226 -112.341627 175 28657ft 393kts
20-Jan-18 16:37 39.561922 -112.315384 175 29308ft 395kts
20-Jan-18 16:38 39.453410 -112.298282 184 29874ft 391kts
20-Jan-18 16:39 39.378586 -112.299880 186 30013ft 396kts
20-Jan-18 16:40 39.375890 -112.299954 186 30013ft 397kts
20-Jan-18 16:41 39.330948 -112.302460 190 30012ft 399kts
20-Jan-18 16:42 39.219369 -112.319635 191 30005ft 407kts
20-Jan-18 16:43 39.108663 -112.336751 191 30004ft 401kts
20-Jan-18 16:44 38.998716 -112.353509 191 30003ft 396kts
20-Jan-18 16:45 38.893329 -112.369364 191 30004ft 392kts
20-Jan-18 16:46 38.787873 -112.383620 185 30008ft 394kts
20-Jan-18 16:47 38.678554 -112.375216 176 30017ft 398kts
20-Jan-18 16:48 38.582595 -112.353361 176 30017ft 397kts
20-Jan-18 16:49 38.474329 -112.328393 176 30036ft 396kts
20-Jan-18 16:50 38.366223 -112.315679 186 30038ft 387kts
20-Jan-18 16:51 38.259341 -112.317286 186 30034ft 386kts
20-Jan-18 16:52 38.153104 -112.318802 186 29958ft 387kts
20-Jan-18 16:53 38.045327 -112.320046 183 29868ft 389kts
20-Jan-18 16:54 37.937579 -112.312149 183 29868ft 388kts
20-Jan-18 16:55 37.834395 -112.306969 184 29830ft 393kts
20-Jan-18 16:56 37.725091 -112.297873 186 29832ft 396kts
20-Jan-18 16:57 37.616000 -112.300519 195 29837ft 391kts
20-Jan-18 16:58 37.507905 -112.319222 196 29829ft 395kts
20-Jan-18 16:59 37.397788 -112.329574 192 29829ft 402kts
20-Jan-18 17:00 37.285892 -112.331300 186 29828ft 411kts
20-Jan-18 17:01 37.173187 -112.330675 195 29836ft 402kts
20-Jan-18 17:02 37.061423 -112.343850 192 29828ft 409kts
20-Jan-18 17:03 36.948025 -112.352322 191 29900ft 410kts
20-Jan-18 17:04 36.838275 -112.359594 191 29907ft 412kts
20-Jan-18 17:05 36.723625 -112.366995 191 29907ft 415kts
20-Jan-18 17:06 36.608470 -112.374430 191 29907ft 417kts
20-Jan-18 17:07 36.492607 -112.381902 191 29854ft 420kts
20-Jan-18 17:08 36.376014 -112.389386 191 29854ft 421kts
20-Jan-18 17:09 36.258990 -112.396880 191 29854ft 423kts
20-Jan-18 17:10 36.141487 -112.404389 191 29854ft 424kts
20-Jan-18 17:11 36.023625 -112.411754 194 29854ft 426kts
20-Jan-18 17:12 35.905400 -112.419473 194 29855ft 429kts
20-Jan-18 17:13 35.794191 -112.428786 206 29838ft 414kts
20-Jan-18 17:14 35.736783 -112.520271 278 29868ft 340kts
20-Jan-18 17:15 35.805454 -112.594895 335 29863ft 378kts
20-Jan-18 17:16 35.907774 -112.627930 336 29847ft 382kts
20-Jan-18 17:17 36.009094 -112.660754 335 29864ft 386kts
20-Jan-18 17:18 36.108118 -112.693162 335 29864ft 390kts
20-Jan-18 17:19 36.212638 -112.727588 335 29866ft 394kts
20-Jan-18 17:20 36.318731 -112.763963 335 29863ft 399kts
20-Jan-18 17:21 36.425885 -112.802576 335 29889ft 404kts
20-Jan-18 17:22 36.518593 -112.866131 293 29931ft 373kts
20-Jan-18 17:23 36.555396 -112.985802 284 29944ft 375kts
20-Jan-18 17:24 36.584297 -113.110298 280 29910ft 378kts
20-Jan-18 17:25 36.547786 -113.228715 227 29904ft 397kts
20-Jan-18 17:26 36.439706 -113.277442 203 29911ft 424kts
20-Jan-18 17:27 36.323381 -113.311623 196 29911ft 443kts
20-Jan-18 17:28 36.199272 -113.331267 195 29919ft 458kts
20-Jan-18 17:29 36.078435 -113.367670 229 30023ft 426kts
20-Jan-18 17:30 36.038354 -113.480168 281 29989ft 363kts
20-Jan-18 17:31 36.061883 -113.598192 286 29999ft 363kts
20-Jan-18 17:32 36.069809 -113.717548 280 30007ft 376kts
20-Jan-18 17:33 36.072698 -113.847093 279 29983ft 385kts
20-Jan-18 17:34 36.074405 -113.977564 279 29977ft 391kts
20-Jan-18 17:35 36.075754 -114.107994 279 30001ft 394kts
20-Jan-18 17:36 36.076962 -114.243089 279 30000ft 397kts
20-Jan-18 17:37 36.078003 -114.377804 279 29998ft 399kts
20-Jan-18 17:38 36.078804 -114.510572 279 29996ft 395kts
20-Jan-18 17:39 36.079370 -114.645838 279 29995ft 394kts
20-Jan-18 17:40 36.079534 -114.776715 278 30002ft 392kts
20-Jan-18 17:41 36.079870 -114.904173 278 30028ft 387kts
20-Jan-18 17:42 36.080394 -115.035652 279 30011ft 384kts
20-Jan-18 17:43 36.081702 -115.161179 279 29999ft 381kts
20-Jan-18 17:44 36.020253 -115.274561 221 30015ft 454kts
20-Jan-18 17:45 35.937975 -115.350464 232 30027ft 438kts
20-Jan-18 17:46 35.841034 -115.465166 236 29983ft 432kts
20-Jan-18 17:47 35.757741 -115.569449 236 30009ft 427kts
20-Jan-18 17:48 35.688800 -115.656498 236 30012ft 424kts
20-Jan-18 17:49 35.613652 -115.751578 236 30023ft 430kts
20-Jan-18 17:50 35.543753 -115.839355 236 30023ft 435kts
20-Jan-18 17:51 35.459151 -115.945469 236 30023ft 439kts
20-Jan-18 17:52 35.359465 -116.069939 235 30050ft 443kts
20-Jan-18 17:53 35.289038 -116.160828 238 30051ft 442kts
20-Jan-18 17:54 35.204540 -116.270991 236 30051ft 443kts
20-Jan-18 17:55 35.121754 -116.376677 237 27839ft 428kts
20-Jan-18 17:56 35.041432 -116.478468 237 25625ft 414kts
20-Jan-18 17:57 34.963557 -116.576939 237 24055ft 392kts
20-Jan-18 17:58 34.925704 -116.675786 275 24099ft 354kts
20-Jan-18 17:59 34.909272 -116.789952 267 24090ft 375kts
20-Jan-18 18:00 34.890582 -116.877698 264 24070ft 382kts
20-Jan-18 18:01 34.867982 -116.974399 264 24069ft 384kts
20-Jan-18 18:02 34.839669 -117.093071 264 23778ft 364kts
20-Jan-18 18:03 34.812402 -117.207404 263 21431ft 357kts
20-Jan-18 18:04 34.785757 -117.317856 262 19276ft 348kts
20-Jan-18 18:05 34.759168 -117.427696 261 17135ft 339kts
20-Jan-18 18:06 34.733478 -117.533415 260 15080ft 332kts
20-Jan-18 18:07 34.707731 -117.638922 260 13979ft 324kts
20-Jan-18 18:08 34.687362 -117.721275 259 13983ft 323kts
20-Jan-18 18:09 34.662080 -117.823531 259 13975ft 323kts
20-Jan-18 18:10 34.639333 -117.917339 267 11863ft 286kts
20-Jan-18 18:11 34.637401 -118.009286 273 9046ft 274kts
20-Jan-18 18:12 34.622148 -118.096627 254 7729ft 272kts
20-Jan-18 18:13 34.603572 -118.183853 267 8002ft 271kts
20-Jan-18 18:14 34.584775 -118.266162 260 8009ft 252kts
20-Jan-18 18:15 34.570785 -118.344912 260 8003ft 237kts
20-Jan-18 18:16 34.554724 -118.424573 257 8015ft 253kts
20-Jan-18 18:17 34.503483 -118.482269 221 6736ft 273kts
20-Jan-18 18:18 34.448075 -118.531501 221 6008ft 259kts
20-Jan-18 18:19 34.396534 -118.588616 230 6009ft 257kts
20-Jan-18 18:20 34.341636 -118.639613 184 5997ft 269kts
20-Jan-18 18:21 34.268805 -118.637358 180 5982ft 273kts
20-Jan-18 18:22 34.192784 -118.633897 177 4994ft 291kts
20-Jan-18 18:23 34.149432 -118.569695 87 4006ft 269kts
20-Jan-18 18:24 34.151942 -118.490981 84 4020ft 210kts
20-Jan-18 18:25 34.153265 -118.431268 84 4000ft 175kts
20-Jan-18 18:26 34.153248 -118.376473 85 3572ft 157kts
20-Jan-18 18:27 34.153327 -118.327964 76 2697ft 140kts
20-Jan-18 18:28 34.184995 -118.319203 353 1628ft 128kts
20-Jan-18 18:29 34.197691 -118.353895 273 740ft 127kts
20-Jan-18 18:30 34.197174 -118.368900 154 739ft 12kts
20-Jan-18 18:31 34.197038 -118.368781 137 739ft 0kts
20-Jan-18 18:32 34.197038 -118.368781 137 739ft 0kts
20-Jan-18 18:33 34.196803 -118.358907 92 739ft 52kts
20-Jan-18 18:34 34.196776 -118.351078 181 739ft 0kts

Navigation Log

Ident Type
Flight plan parsing failed, navigation log unavailable